Time;durP1;ratioP1;P1;durP2;ratioP2;P2;SDS_P1;SDS_P2;PMS_P1;PMS_P2;Temp;Humidity;BMP_temperature;BMP_pressure;BME280_temperature;BME280_humidity;BME280_pressure;Samples;Min_cycle;Max_cycle;Signal;HPM_P1;HPM_P2
2021/10/15 00:01:23;;;;;;;9.90;6.60;;;8.60;99.90;;;;;;5029569;28;20248;-79
2021/10/15 00:03:49;;;;;;;9.23;6.32;;;8.60;99.90;;;;;;5031548;28;20502;-79
2021/10/15 00:06:16;;;;;;;10.40;6.40;;;8.60;99.90;;;;;;5035881;28;20670;-80
2021/10/15 00:08:43;;;;;;;8.80;6.22;;;8.70;99.90;;;;;;5032255;28;20483;-80
2021/10/15 00:11:10;;;;;;;9.77;6.50;;;8.70;99.90;;;;;;5024439;28;20215;-80
2021/10/15 00:13:38;;;;;;;9.50;6.70;;;8.70;99.90;;;;;;5021606;28;20205;-81
2021/10/15 00:16:06;;;;;;;13.98;7.20;;;8.70;99.90;;;;;;5020772;28;20216;-81
2021/10/15 00:18:33;;;;;;;9.10;6.43;;;8.70;99.90;;;;;;5020175;28;20240;-81
2021/10/15 00:21:00;;;;;;;9.90;6.32;;;8.30;99.90;;;;;;5020877;28;20219;-81
2021/10/15 00:23:27;;;;;;;11.70;6.38;;;8.70;99.90;;;;;;5033133;28;20217;-80
2021/10/15 00:25:54;;;;;;;11.90;6.70;;;8.70;99.90;;;;;;5033025;28;20239;-81
2021/10/15 00:28:20;;;;;;;10.23;6.37;;;8.70;99.90;;;;;;5032784;28;20550;-79
2021/10/15 00:30:49;;;;;;;11.23;6.80;;;8.70;99.90;;;;;;5027947;28;20448;-81
2021/10/15 00:33:16;;;;;;;13.57;6.88;;;8.60;99.90;;;;;;5021731;28;20217;-80
2021/10/15 00:35:43;;;;;;;9.27;6.53;;;8.70;99.90;;;;;;5023707;28;20251;-81
2021/10/15 00:38:09;;;;;;;10.27;6.50;;;8.70;99.90;;;;;;5019953;28;20508;-80
2021/10/15 00:40:36;;;;;;;12.23;7.50;;;8.50;99.90;;;;;;5018935;28;20531;-81
2021/10/15 00:43:03;;;;;;;10.07;8.03;;;8.60;99.90;;;;;;5018203;28;20484;-81
2021/10/15 00:45:30;;;;;;;10.83;6.37;;;8.50;99.90;;;;;;5027416;28;20470;-80
2021/10/15 00:47:58;;;;;;;14.93;7.20;;;8.70;99.90;;;;;;5035437;28;20476;-80
2021/10/15 00:50:25;;;;;;;9.03;6.03;;;8.60;99.90;;;;;;5031733;28;20534;-80
2021/10/15 00:52:52;;;;;;;11.60;7.03;;;8.60;99.90;;;;;;5025552;28;20457;-79
2021/10/15 00:55:19;;;;;;;10.83;7.40;;;8.50;99.90;;;;;;5036323;28;20195;-79
2021/10/15 00:57:46;;;;;;;13.00;7.43;;;8.60;99.90;;;;;;5023582;28;20473;-80
2021/10/15 01:00:13;;;;;;;10.73;7.20;;;8.50;99.90;;;;;;5023986;28;20627;-80
2021/10/15 01:02:43;;;;;;;11.05;6.40;;;8.50;99.90;;;;;;5018403;28;20223;-80
2021/10/15 01:05:12;;;;;;;11.20;7.03;;;8.60;99.90;;;;;;5017963;28;20204;-81
2021/10/15 01:07:39;;;;;;;8.90;6.15;;;8.10;99.90;;;;;;5017479;28;20555;-80
2021/10/15 01:10:07;;;;;;;9.00;6.10;;;8.20;99.90;;;;;;5017750;28;20224;-81
2021/10/15 01:12:35;;;;;;;11.68;6.82;;;8.40;99.90;;;;;;5017769;28;20270;-80
2021/10/15 01:15:02;;;;;;;8.10;6.10;;;8.40;99.90;;;;;;5017915;28;20212;-81
2021/10/15 01:17:29;;;;;;;10.90;6.63;;;8.20;99.90;;;;;;5017785;28;20498;-81
2021/10/15 01:19:57;;;;;;;15.07;6.55;;;8.40;99.90;;;;;;5017889;28;20530;-81
2021/10/15 01:22:27;;;;;;;9.30;6.40;;;8.40;99.90;;;;;;5017281;28;20236;-81
2021/10/15 01:24:54;;;;;;;12.50;6.28;;;8.30;99.90;;;;;;5017294;28;20244;-81
2021/10/15 01:27:21;;;;;;;9.80;6.40;;;8.10;99.90;;;;;;5025951;28;20277;-79
2021/10/15 01:29:48;;;;;;;9.38;6.47;;;8.30;99.90;;;;;;5018195;28;20523;-80
2021/10/15 01:32:16;;;;;;;11.07;6.90;;;8.30;99.90;;;;;;5016950;28;20207;-81
2021/10/15 01:34:43;;;;;;;9.73;6.70;;;8.30;99.90;;;;;;5017102;28;20293;-81
2021/10/15 01:37:11;;;;;;;8.25;5.80;;;7.90;99.90;;;;;;5017252;28;20666;-81
2021/10/15 01:39:38;;;;;;;10.15;6.53;;;8.10;99.90;;;;;;5017857;28;20236;-80
2021/10/15 01:42:06;;;;;;;7.63;5.57;;;8.20;99.90;;;;;;5017086;28;20223;-83
2021/10/15 01:44:33;;;;;;;8.35;6.15;;;8.10;99.90;;;;;;5017087;28;20324;-81
2021/10/15 01:46:59;;;;;;;7.93;5.85;;;8.10;99.90;;;;;;5017586;28;20222;-81
2021/10/15 01:49:26;;;;;;;9.05;6.85;;;8.00;99.90;;;;;;5016603;28;20716;-81
2021/10/15 01:51:53;;;;;;;9.02;5.95;;;8.00;99.90;;;;;;5019006;28;20217;-81
2021/10/15 01:54:21;;;;;;;8.68;5.88;;;7.90;99.90;;;;;;5017291;28;20204;-80
2021/10/15 01:56:48;;;;;;;9.10;5.95;;;8.10;99.90;;;;;;5017109;28;20217;-80
2021/10/15 01:59:15;;;;;;;10.23;5.70;;;8.00;99.90;;;;;;5017941;28;20229;-81
2021/10/15 02:01:43;;;;;;;8.90;5.80;;;8.10;99.90;;;;;;5017276;28;20298;-80
2021/10/15 02:04:10;;;;;;;8.73;5.70;;;7.90;99.90;;;;;;5016820;28;20226;-81
2021/10/15 02:06:37;;;;;;;8.10;5.80;;;7.90;99.90;;;;;;5016827;28;20650;-81
2021/10/15 02:09:04;;;;;;;9.60;5.95;;;7.90;99.90;;;;;;5016485;28;20323;-81
2021/10/15 02:11:32;;;;;;;11.27;6.60;;;8.00;99.90;;;;;;5017235;28;20213;-81
2021/10/15 02:13:59;;;;;;;10.88;5.75;;;7.90;99.90;;;;;;5017185;28;20573;-80
2021/10/15 02:16:25;;;;;;;10.02;5.72;;;7.80;99.90;;;;;;5020982;28;20217;-81
2021/10/15 02:18:52;;;;;;;10.05;6.88;;;8.10;99.90;;;;;;5018155;28;20300;-81
2021/10/15 02:21:19;;;;;;;8.88;6.57;;;7.90;99.90;;;;;;5017302;28;20292;-80
2021/10/15 02:23:46;;;;;;;9.80;6.20;;;7.90;99.90;;;;;;5016670;28;20239;-81
2021/10/15 02:26:18;;;;;;;9.77;5.85;;;8.00;99.90;;;;;;5016839;28;20296;-80
2021/10/15 02:28:47;;;;;;;8.18;5.55;;;7.70;99.90;;;;;;5016615;28;20724;-79
2021/10/15 02:31:13;;;;;;;8.77;7.20;;;7.80;99.90;;;;;;5016174;28;20209;-79
2021/10/15 02:33:40;;;;;;;8.50;5.97;;;7.80;99.90;;;;;;5015748;28;20201;-79
2021/10/15 02:36:07;;;;;;;9.10;6.40;;;7.80;99.90;;;;;;5015928;28;20295;-80
2021/10/15 02:38:34;;;;;;;9.60;5.35;;;7.70;99.90;;;;;;5016080;28;20319;-79
2021/10/15 02:41:01;;;;;;;8.55;5.55;;;8.00;99.90;;;;;;5016184;28;20214;-79
2021/10/15 02:43:27;;;;;;;8.88;5.28;;;8.10;99.90;;;;;;5015862;28;20226;-79
2021/10/15 02:45:56;;;;;;;8.40;5.43;;;7.80;99.90;;;;;;5018452;28;20214;-78
2021/10/15 02:48:22;;;;;;;8.93;5.80;;;8.10;99.90;;;;;;5029386;28;20233;-78
2021/10/15 02:50:49;;;;;;;8.05;5.40;;;7.90;99.90;;;;;;5018261;28;20278;-79
2021/10/15 02:53:16;;;;;;;8.05;5.43;;;7.90;99.90;;;;;;5021614;28;20215;-78
2021/10/15 02:55:43;;;;;;;8.00;5.50;;;7.90;99.90;;;;;;5020963;28;20220;-79
2021/10/15 02:58:10;;;;;;;10.45;6.47;;;7.70;99.90;;;;;;5018171;28;20319;-78
2021/10/15 03:00:37;;;;;;;7.68;5.80;;;7.80;99.90;;;;;;5017219;28;20209;-78
2021/10/15 03:03:05;;;;;;;9.23;5.80;;;7.60;99.90;;;;;;5018418;28;20316;-79
2021/10/15 03:05:32;;;;;;;10.38;6.18;;;7.70;99.90;;;;;;5018550;28;20234;-78
2021/10/15 03:07:58;;;;;;;8.82;5.65;;;7.60;99.90;;;;;;5017465;28;20311;-78
2021/10/15 03:10:25;;;;;;;11.73;6.05;;;7.60;99.90;;;;;;5024682;28;20295;-78
2021/10/15 03:12:52;;;;;;;9.10;5.60;;;7.70;99.90;;;;;;5020031;28;20204;-78
2021/10/15 03:15:19;;;;;;;7.85;5.20;;;7.60;99.90;;;;;;5017996;28;20306;-78
2021/10/15 03:17:46;;;;;;;8.13;5.35;;;7.60;99.90;;;;;;5017834;28;20247;-78
2021/10/15 03:20:14;;;;;;;9.65;6.57;;;7.80;99.90;;;;;;5044343;23;20646;-79
2021/10/15 03:22:41;;;;;;;8.02;5.80;;;7.70;99.90;;;;;;5025964;28;20204;-79
2021/10/15 03:25:08;;;;;;;11.10;6.88;;;7.60;99.90;;;;;;5018497;28;20244;-79
2021/10/15 03:27:35;;;;;;;8.80;5.75;;;7.70;99.90;;;;;;5018143;28;20206;-79
2021/10/15 03:30:02;;;;;;;9.93;6.63;;;7.50;99.90;;;;;;5018469;28;20328;-79
2021/10/15 03:32:28;;;;;;;8.90;6.05;;;7.70;99.90;;;;;;5018234;28;20209;-78
2021/10/15 03:34:55;;;;;;;10.68;5.93;;;7.60;99.90;;;;;;5019502;28;20211;-79
2021/10/15 03:37:24;;;;;;;8.32;6.10;;;7.80;99.90;;;;;;5033663;28;20394;-79
2021/10/15 03:39:51;;;;;;;8.68;5.82;;;7.80;99.90;;;;;;5019100;28;20229;-78
2021/10/15 03:42:18;;;;;;;9.88;5.75;;;7.60;99.90;;;;;;5018361;28;20208;-79
2021/10/15 03:44:45;;;;;;;8.60;5.63;;;7.80;99.90;;;;;;5016974;28;20229;-77
2021/10/15 03:47:12;;;;;;;13.05;7.00;;;7.70;99.90;;;;;;5018648;28;20578;-78
2021/10/15 03:49:39;;;;;;;7.75;5.88;;;7.80;99.90;;;;;;5017949;28;20243;-78
2021/10/15 03:52:06;;;;;;;9.40;5.70;;;7.80;99.90;;;;;;5020040;28;20214;-78
2021/10/15 03:54:35;;;;;;;9.65;6.63;;;7.80;99.90;;;;;;5017194;28;20292;-77
2021/10/15 03:57:02;;;;;;;8.90;6.20;;;7.80;99.90;;;;;;5016975;28;20215;-79
2021/10/15 03:59:29;;;;;;;9.77;5.88;;;8.00;99.90;;;;;;5017253;28;20229;-78
2021/10/15 04:01:55;;;;;;;11.25;6.03;;;8.00;99.90;;;;;;5034961;28;20205;-77
2021/10/15 04:04:22;;;;;;;10.45;6.30;;;8.00;99.90;;;;;;5020190;28;20224;-79
2021/10/15 04:06:49;;;;;;;11.43;6.90;;;8.00;99.90;;;;;;5021566;28;20197;-78
2021/10/15 04:09:16;;;;;;;10.02;6.53;;;8.10;99.90;;;;;;5018337;28;20276;-79
2021/10/15 04:11:44;;;;;;;10.52;6.60;;;8.00;99.90;;;;;;5017664;28;20687;-79
2021/10/15 04:14:11;;;;;;;30.23;8.93;;;8.10;99.90;;;;;;5019356;28;20213;-78
2021/10/15 04:16:38;;;;;;;12.73;7.05;;;7.80;99.90;;;;;;5032606;28;20216;-79
2021/10/15 04:19:05;;;;;;;10.25;6.53;;;8.00;99.90;;;;;;5029368;28;20237;-79
2021/10/15 04:21:31;;;;;;;10.48;7.13;;;7.70;99.90;;;;;;5034152;28;20190;-78
2021/10/15 04:23:58;;;;;;;9.10;6.15;;;8.00;99.90;;;;;;5024381;28;20239;-78
2021/10/15 04:26:25;;;;;;;9.32;6.68;;;7.80;99.90;;;;;;5020489;28;20205;-79
2021/10/15 04:28:53;;;;;;;9.10;6.20;;;7.80;99.90;;;;;;5025217;28;20301;-79
2021/10/15 04:31:20;;;;;;;9.73;6.35;;;8.00;99.90;;;;;;5027690;28;20223;-77
2021/10/15 04:33:47;;;;;;;10.07;6.20;;;8.00;99.90;;;;;;5015792;28;20561;-77
2021/10/15 04:36:13;;;;;;;8.93;6.40;;;8.00;99.90;;;;;;5015205;28;20211;-77
2021/10/15 04:38:40;;;;;;;15.13;7.82;;;7.70;99.90;;;;;;5016224;28;20236;-77
2021/10/15 04:41:07;;;;;;;14.98;8.10;;;7.80;99.90;;;;;;5018112;28;20709;-77
2021/10/15 04:43:34;;;;;;;11.55;6.35;;;8.00;99.90;;;;;;5018587;28;20225;-77
2021/10/15 04:46:02;;;;;;;9.25;5.93;;;8.00;99.90;;;;;;5017682;28;20296;-77
2021/10/15 04:48:29;;;;;;;12.27;6.82;;;8.00;99.90;;;;;;5021806;28;20213;-77
2021/10/15 04:50:56;;;;;;;10.82;5.80;;;8.30;99.90;;;;;;5016089;28;20204;-77
2021/10/15 04:53:23;;;;;;;10.68;6.55;;;8.10;99.90;;;;;;5014596;28;20689;-77
2021/10/15 04:55:50;;;;;;;10.75;6.38;;;8.30;99.90;;;;;;5014890;28;20209;-77
2021/10/15 04:58:17;;;;;;;7.65;5.65;;;8.00;99.90;;;;;;5015014;28;20209;-76
2021/10/15 05:00:44;;;;;;;10.35;6.40;;;8.20;99.90;;;;;;5014588;28;20215;-77
2021/10/15 05:03:12;;;;;;;9.95;6.85;;;7.70;99.90;;;;;;5014934;28;20205;-77
2021/10/15 05:05:41;;;;;;;11.88;6.40;;;8.10;99.90;;;;;;5014895;28;20219;-77
2021/10/15 05:08:10;;;;;;;8.90;6.45;;;8.10;99.90;;;;;;5014495;28;20216;-78
2021/10/15 05:10:36;;;;;;;13.13;7.05;;;8.20;99.90;;;;;;5014271;28;20323;-77
2021/10/15 05:13:04;;;;;;;9.40;6.35;;;7.90;99.90;;;;;;5015046;28;20213;-76
2021/10/15 05:15:31;;;;;;;8.32;5.85;;;8.00;99.90;;;;;;5017738;28;20212;-76
2021/10/15 05:17:58;;;;;;;12.50;7.90;;;8.10;99.90;;;;;;5016445;28;20207;-77
2021/10/15 05:20:26;;;;;;;11.63;7.00;;;8.10;99.90;;;;;;5017306;28;20239;-78
2021/10/15 05:22:53;;;;;;;10.27;6.75;;;8.10;99.90;;;;;;5019528;28;20592;-80
2021/10/15 05:25:19;;;;;;;9.45;6.10;;;7.80;99.90;;;;;;5018403;28;20234;-79
2021/10/15 05:27:46;;;;;;;9.43;6.60;;;7.90;99.90;;;;;;5019516;28;20295;-79
2021/10/15 05:30:13;;;;;;;9.25;6.78;;;7.80;99.90;;;;;;5022294;28;20243;-79
2021/10/15 05:32:40;;;;;;;10.90;6.20;;;7.70;99.90;;;;;;5019408;28;20209;-78
2021/10/15 05:35:08;;;;;;;8.80;6.10;;;7.90;99.90;;;;;;5014257;28;20234;-76
2021/10/15 05:37:36;;;;;;;14.60;7.15;;;8.00;99.90;;;;;;5014266;28;20213;-77
2021/10/15 05:40:04;;;;;;;9.07;6.18;;;7.90;99.90;;;;;;5014921;28;20243;-76
2021/10/15 05:42:31;;;;;;;11.88;7.55;;;8.00;99.90;;;;;;5016471;28;20217;-76
2021/10/15 05:44:58;;;;;;;9.00;6.25;;;7.70;99.90;;;;;;5014485;28;20327;-76
2021/10/15 05:47:26;;;;;;;10.63;6.60;;;7.70;99.90;;;;;;5016460;28;20208;-76
2021/10/15 05:49:52;;;;;;;9.60;6.40;;;7.80;99.90;;;;;;5030976;28;20230;-77
2021/10/15 05:52:29;;;;;;;9.23;5.97;;;7.80;99.90;;;;;;5013691;28;20212;-77
2021/10/15 05:54:58;;;;;;;9.18;6.07;;;7.70;99.90;;;;;;5013553;28;20242;-77
2021/10/15 06:00:12;;;;;;;10.95;7.55;;;7.80;99.90;;;;;;5013095;28;20227;-76
2021/10/15 06:02:43;;;;;;;10.20;6.78;;;7.70;99.90;;;;;;5019706;28;20208;-77
2021/10/15 06:16:19;;;;;;;9.13;6.87;;;8.20;99.90;;;;;;4973634;28;20186;-78
2021/10/15 06:18:52;;;;;;;9.50;6.45;;;8.10;99.90;;;;;;5004962;28;20504;-78
2021/10/15 06:21:19;;;;;;;11.20;6.40;;;8.20;99.90;;;;;;5015863;28;20263;-79
2021/10/15 06:23:46;;;;;;;9.57;5.85;;;8.20;99.90;;;;;;5014197;28;20204;-77
2021/10/15 06:26:14;;;;;;;9.02;5.57;;;8.40;99.90;;;;;;5016422;28;20205;-87
2021/10/15 06:28:41;;;;;;;11.60;6.53;;;8.40;99.90;;;;;;5015364;28;20249;-77
2021/10/15 06:31:08;;;;;;;8.35;6.22;;;8.50;99.90;;;;;;5026882;28;20295;-78
2021/10/15 06:33:34;;;;;;;8.07;5.70;;;8.20;99.90;;;;;;5018702;28;20214;-77
2021/10/15 06:36:01;;;;;;;9.63;6.85;;;8.20;99.90;;;;;;5021305;28;20204;-78
2021/10/15 06:38:28;;;;;;;9.97;5.70;;;8.30;99.90;;;;;;5024865;28;20217;-78
2021/10/15 06:40:55;;;;;;;12.95;7.35;;;8.20;99.90;;;;;;5016968;28;20452;-77
2021/10/15 06:43:24;;;;;;;8.90;6.50;;;8.20;99.90;;;;;;5017602;28;20578;-78
2021/10/15 06:45:51;;;;;;;9.80;6.20;;;8.30;99.90;;;;;;5017436;28;20226;-77
2021/10/15 06:48:17;;;;;;;10.90;6.22;;;8.30;99.90;;;;;;5017129;28;20209;-77
2021/10/15 06:50:44;;;;;;;9.80;7.15;;;8.40;99.90;;;;;;5017395;28;20236;-78
2021/10/15 06:53:12;;;;;;;12.13;6.55;;;8.30;99.90;;;;;;5018224;28;20220;-78
2021/10/15 06:55:39;;;;;;;10.88;6.10;;;8.20;99.90;;;;;;5019594;28;20622;-78
2021/10/15 06:58:07;;;;;;;7.68;5.63;;;8.40;99.90;;;;;;5021483;28;20561;-78
2021/10/15 07:00:35;;;;;;;9.10;6.20;;;8.50;99.90;;;;;;5018392;28;20319;-78
2021/10/15 07:03:02;;;;;;;10.27;6.88;;;8.50;99.90;;;;;;5017851;28;20448;-78
2021/10/15 07:05:28;;;;;;;10.80;8.23;;;8.30;99.90;;;;;;5017859;28;20233;-77
2021/10/15 07:07:56;;;;;;;7.67;6.00;;;8.30;99.90;;;;;;5018830;28;20209;-77
2021/10/15 07:10:23;;;;;;;9.27;5.45;;;8.20;99.90;;;;;;5024818;28;20477;-77
2021/10/15 07:12:50;;;;;;;12.95;6.07;;;8.60;99.90;;;;;;5021883;28;20206;-78
2021/10/15 07:15:17;;;;;;;10.37;6.87;;;8.60;99.90;;;;;;5017892;28;20210;-76
2021/10/15 07:17:45;;;;;;;10.60;7.10;;;8.50;99.90;;;;;;5017286;28;20456;-76
2021/10/15 07:20:12;;;;;;;11.95;7.03;;;8.30;99.90;;;;;;5016543;28;20480;-77
2021/10/15 07:22:39;;;;;;;9.30;5.65;;;8.40;99.90;;;;;;5017834;28;20299;-78
2021/10/15 07:25:08;;;;;;;11.53;6.80;;;8.80;99.90;;;;;;5016727;28;20320;-76
2021/10/15 07:27:35;;;;;;;11.97;6.80;;;8.80;99.90;;;;;;5017359;28;20451;-77
2021/10/15 07:30:04;;;;;;;13.33;7.60;;;8.90;99.90;;;;;;5016704;28;20478;-78
2021/10/15 07:32:31;;;;;;;14.93;7.63;;;8.90;99.90;;;;;;5017373;28;20483;-77
2021/10/15 07:34:59;;;;;;;16.50;7.10;;;9.00;99.90;;;;;;5018364;28;20207;-76
2021/10/15 07:37:26;;;;;;;8.90;6.83;;;9.20;99.90;;;;;;5035232;28;20453;-78
2021/10/15 07:39:53;;;;;;;15.93;9.40;;;9.30;99.90;;;;;;5017159;28;20479;-77
2021/10/15 07:42:20;;;;;;;11.67;7.27;;;9.40;99.90;;;;;;5023846;28;20568;-77
2021/10/15 07:44:46;;;;;;;15.27;6.90;;;9.50;99.90;;;;;;5019901;28;20467;-77
2021/10/15 07:47:13;;;;;;;9.83;6.40;;;9.60;99.90;;;;;;5021452;28;20552;-76
2021/10/15 07:49:40;;;;;;;12.37;7.93;;;9.80;99.90;;;;;;5018946;28;20522;-77
2021/10/15 07:52:09;;;;;;;11.40;8.17;;;10.00;99.90;;;;;;5020629;28;20428;-77
2021/10/15 07:54:36;;;;;;;17.93;6.50;;;10.20;99.90;;;;;;5020356;28;20487;-77
2021/10/15 07:57:04;;;;;;;10.37;7.00;;;10.40;99.90;;;;;;5020437;28;20460;-77
2021/10/15 07:59:31;;;;;;;20.03;10.07;;;10.60;99.90;;;;;;5017481;28;20840;-77
2021/10/15 08:01:58;;;;;;;11.10;7.50;;;10.90;99.90;;;;;;5017719;28;20457;-77
2021/10/15 08:04:25;;;;;;;11.27;7.37;;;11.00;99.90;;;;;;5017422;28;20490;-77
2021/10/15 08:06:52;;;;;;;9.80;6.33;;;11.20;99.90;;;;;;5017427;28;20515;-77
2021/10/15 08:09:21;;;;;;;10.13;6.20;;;11.30;99.90;;;;;;5016440;28;20448;-77
2021/10/15 08:11:48;;;;;;;11.20;7.40;;;11.40;99.90;;;;;;5016687;28;20424;-77
2021/10/15 08:14:15;;;;;;;12.77;8.47;;;11.60;99.90;;;;;;5016639;28;20451;-77
2021/10/15 08:16:42;;;;;;;9.90;7.50;;;11.80;99.90;;;;;;5016298;28;20474;-77
2021/10/15 08:19:08;;;;;;;10.97;7.60;;;11.70;99.90;;;;;;5015570;28;20463;-77
2021/10/15 08:21:35;;;;;;;12.80;8.90;;;11.70;99.90;;;;;;5017133;28;20786;-78
2021/10/15 08:24:02;;;;;;;12.90;8.10;;;11.70;99.90;;;;;;5023639;28;20538;-77
2021/10/15 08:26:30;;;;;;;11.67;8.90;;;11.40;99.90;;;;;;5016810;28;20497;-78
2021/10/15 08:29:00;;;;;;;11.63;8.80;;;11.50;99.90;;;;;;5017197;28;20492;-79
2021/10/15 08:31:27;;;;;;;12.50;8.40;;;11.50;99.90;;;;;;5017365;28;20496;-76
2021/10/15 08:33:54;;;;;;;14.33;8.80;;;11.60;99.90;;;;;;5019404;28;20504;-78
2021/10/15 08:36:22;;;;;;;12.10;7.77;;;11.70;99.90;;;;;;5019863;28;20433;-77
2021/10/15 08:38:50;;;;;;;16.93;9.30;;;11.60;99.90;;;;;;5033562;28;20481;-77
2021/10/15 08:41:20;;;;;;;11.00;8.20;;;11.60;99.90;;;;;;5031097;28;20527;-78
2021/10/15 08:43:49;;;;;;;10.30;8.20;;;11.50;99.90;;;;;;5025926;28;20408;-78
2021/10/15 08:46:16;;;;;;;13.07;8.73;;;11.40;99.90;;;;;;5029749;28;20547;-77
2021/10/15 08:48:43;;;;;;;12.53;8.43;;;11.40;99.90;;;;;;5024413;28;20482;-78
2021/10/15 08:51:11;;;;;;;15.17;9.37;;;11.40;99.90;;;;;;5016095;28;20881;-76
2021/10/15 08:53:48;;;;;;;12.20;9.20;;;11.40;99.90;;;;;;5020502;28;20460;-78
2021/10/15 08:56:17;;;;;;;14.63;9.17;;;11.50;99.90;;;;;;5019764;28;20549;-78
2021/10/15 08:58:46;;;;;;;13.73;8.40;;;11.50;99.90;;;;;;5019666;28;20481;-78
2021/10/15 09:01:15;;;;;;;19.00;9.20;;;11.50;99.90;;;;;;5016916;28;20648;-77
2021/10/15 09:03:42;;;;;;;15.97;9.37;;;11.60;99.90;;;;;;5015577;28;20862;-77
2021/10/15 09:06:11;;;;;;;12.60;8.83;;;11.40;99.90;;;;;;5017563;28;20804;-78
2021/10/15 09:08:53;;;;;;;15.70;9.20;;;11.50;99.90;;;;;;5016923;28;20960;-78
2021/10/15 09:11:25;;;;;;;12.10;8.53;;;11.60;99.90;;;;;;5029855;28;20446;-78
2021/10/15 09:13:52;;;;;;;14.70;8.60;;;11.70;99.90;;;;;;5033232;28;20446;-78
2021/10/15 09:16:20;;;;;;;14.30;8.70;;;11.80;99.90;;;;;;5029952;28;20449;-79
2021/10/15 09:21:16;;;;;;;14.30;9.27;;;12.00;99.90;;;;;;5002882;28;20960;-87
2021/10/15 09:23:45;;;;;;;17.30;9.70;;;12.30;99.90;;;;;;5004298;28;20449;-87
2021/10/15 09:26:12;;;;;;;15.20;9.40;;;12.30;99.90;;;;;;5003839;28;20610;-86
2021/10/15 09:28:41;;;;;;;11.43;7.30;;;12.40;99.90;;;;;;5003672;28;20478;-86
2021/10/15 09:31:09;;;;;;;9.83;7.20;;;12.50;99.90;;;;;;5003799;28;20476;-85
2021/10/15 09:33:37;;;;;;;12.37;7.27;;;12.60;99.90;;;;;;5014528;28;20448;-85
2021/10/15 09:36:05;;;;;;;12.90;8.10;;;12.60;99.90;;;;;;5015308;28;20516;-87
2021/10/15 09:38:32;;;;;;;10.07;7.30;;;12.60;99.90;;;;;;5006573;28;20493;-86
2021/10/15 09:40:59;;;;;;;13.47;7.60;;;12.70;99.90;;;;;;5006569;28;20442;-85
2021/10/15 09:43:34;;;;;;;11.30;7.83;;;12.90;99.90;;;;;;5004357;28;20766;-85
2021/10/15 09:46:01;;;;;;;12.20;7.57;;;13.00;99.90;;;;;;5000645;28;20543;-87
2021/10/15 09:48:31;;;;;;;12.13;7.40;;;13.10;99.90;;;;;;5003851;28;20426;-85
2021/10/15 09:51:15;;;;;;;13.40;8.77;;;13.20;99.90;;;;;;5004190;28;20497;-86
2021/10/15 09:54:03;;;;;;;12.73;7.73;;;13.30;99.90;;;;;;5007357;28;20433;-86
2021/10/15 09:56:49;;;;;;;11.07;6.63;;;13.40;99.90;;;;;;5015065;28;20473;-87
2021/10/15 09:59:17;;;;;;;9.20;6.80;;;13.50;99.90;;;;;;5015118;28;20463;-85
2021/10/15 10:01:44;;;;;;;7.83;6.10;;;13.50;99.90;;;;;;5015567;28;20415;-86
2021/10/15 10:04:11;;;;;;;12.17;7.00;;;13.70;99.90;;;;;;5015179;28;20497;-85
2021/10/15 10:06:40;;;;;;;9.90;6.73;;;13.70;99.90;;;;;;5010739;28;20520;-86
2021/10/15 10:09:09;;;;;;;9.47;6.33;;;13.90;99.90;;;;;;5004714;28;20468;-85
2021/10/15 10:11:36;;;;;;;11.67;6.80;;;14.00;99.90;;;;;;5011323;28;20433;-85
2021/10/15 10:14:03;;;;;;;11.10;6.90;;;14.00;99.90;;;;;;5012624;28;20436;-85
2021/10/15 10:16:31;;;;;;;7.67;5.17;;;14.10;99.90;;;;;;5013901;28;20441;-85
2021/10/15 10:19:01;;;;;;;6.60;4.67;;;14.20;99.90;;;;;;5003486;28;20422;-85
2021/10/15 10:21:33;;;;;;;8.67;4.50;;;14.30;99.90;;;;;;5004289;28;20440;-85
2021/10/15 10:24:07;;;;;;;7.50;4.80;;;14.40;99.90;;;;;;5005971;28;20727;-85
2021/10/15 10:26:44;;;;;;;8.83;5.17;;;14.50;99.90;;;;;;5004940;28;20450;-86
2021/10/15 10:29:11;;;;;;;6.33;4.23;;;14.70;99.90;;;;;;5007375;28;20445;-86
2021/10/15 10:31:41;;;;;;;6.20;4.30;;;14.70;99.90;;;;;;5006355;28;20939;-86
2021/10/15 10:34:14;;;;;;;6.17;3.60;;;14.70;99.90;;;;;;5008168;28;20434;-85
2021/10/15 10:36:42;;;;;;;6.50;3.90;;;14.80;99.90;;;;;;5008238;28;20860;-87
2021/10/15 10:39:28;;;;;;;6.30;3.97;;;14.80;99.90;;;;;;5010460;28;20474;-85
2021/10/15 10:42:03;;;;;;;8.40;4.70;;;14.90;99.90;;;;;;5007817;28;20946;-85
2021/10/15 10:44:31;;;;;;;7.90;5.33;;;15.00;99.90;;;;;;5013620;28;20420;-85
2021/10/15 10:47:12;;;;;;;6.63;5.07;;;15.00;99.90;;;;;;5015143;28;20992;-85
2021/10/15 10:49:40;;;;;;;8.40;5.33;;;15.00;99.90;;;;;;5005939;28;20475;-84
2021/10/15 10:52:22;;;;;;;11.30;5.47;;;15.10;99.90;;;;;;5005274;28;20421;-85
2021/10/15 10:54:50;;;;;;;7.33;5.20;;;15.10;99.90;;;;;;5001578;28;20459;-85
2021/10/15 10:57:40;;;;;;;10.10;5.63;;;15.20;99.90;;;;;;5002268;28;20455;-85
2021/10/15 11:00:23;;;;;;;9.83;5.80;;;15.30;99.90;;;;;;5004096;28;20933;-85
2021/10/15 11:02:52;;;;;;;8.13;5.73;;;15.50;99.90;;;;;;5002930;28;20443;-85
2021/10/15 11:05:37;;;;;;;9.40;4.90;;;15.50;99.90;;;;;;5006536;28;20451;-87
2021/10/15 11:08:30;;;;;;;11.97;7.77;;;15.40;99.90;;;;;;5005364;28;20465;-85
2021/10/15 11:11:37;;;;;;;9.27;6.13;;;15.20;99.90;;;;;;5005450;28;20537;-86
2021/10/15 11:14:05;;;;;;;10.40;6.70;;;15.30;99.90;;;;;;5004339;28;20878;-85
2021/10/15 11:16:32;;;;;;;11.03;6.47;;;15.20;99.90;;;;;;5011578;28;20497;-85
2021/10/15 11:18:59;;;;;;;9.93;6.07;;;15.20;99.90;;;;;;5007541;28;20506;-85
2021/10/15 11:21:26;;;;;;;7.33;5.90;;;15.20;99.90;;;;;;5006234;28;20410;-85
2021/10/15 11:23:53;;;;;;;13.60;6.20;;;15.10;99.90;;;;;;5004896;28;20565;-85
2021/10/15 11:26:33;;;;;;;9.43;6.00;;;15.30;99.90;;;;;;5006910;28;20595;-86
2021/10/15 11:29:00;;;;;;;7.77;5.60;;;15.30;99.90;;;;;;5005064;28;20739;-85
2021/10/15 11:31:28;;;;;;;8.20;5.63;;;15.30;99.90;;;;;;5003944;28;20654;-85
2021/10/15 11:34:08;;;;;;;10.47;5.47;;;15.50;99.90;;;;;;5010561;28;20418;-84
2021/10/15 11:36:35;;;;;;;11.20;5.60;;;15.50;99.90;;;;;;5016478;28;20499;-85
2021/10/15 11:39:02;;;;;;;10.10;5.33;;;15.50;99.90;;;;;;5012837;28;20511;-86
2021/10/15 11:41:28;;;;;;;7.90;5.60;;;15.50;99.90;;;;;;5006956;28;20429;-86
2021/10/15 11:43:55;;;;;;;7.07;4.70;;;15.60;99.90;;;;;;5007069;28;20461;-86
2021/10/15 11:46:25;;;;;;;6.07;3.50;;;15.70;99.90;;;;;;5008439;28;20490;-85
2021/10/15 11:48:53;;;;;;;7.27;3.40;;;15.80;99.90;;;;;;5003990;28;20469;-85
2021/10/15 11:51:23;;;;;;;6.30;3.67;;;15.90;99.90;;;;;;5006922;28;20652;-85
2021/10/15 11:53:51;;;;;;;4.80;2.77;;;15.80;99.90;;;;;;5015804;28;20462;-87
2021/10/15 11:56:20;;;;;;;6.83;3.20;;;15.80;99.90;;;;;;5016541;28;20430;-86
2021/10/15 11:58:48;;;;;;;5.80;3.70;;;15.90;99.90;;;;;;5009500;28;20485;-88
2021/10/15 12:01:19;;;;;;;10.33;4.87;;;15.80;99.90;;;;;;5005129;28;20466;-87
2021/10/15 12:03:51;;;;;;;7.17;3.63;;;15.60;99.90;;;;;;5007431;28;20470;-87
2021/10/15 12:06:27;;;;;;;5.43;2.70;;;15.70;99.90;;;;;;5004469;28;20475;-86
2021/10/15 12:08:57;;;;;;;6.03;3.30;;;15.80;99.90;;;;;;5005070;28;20478;-86
2021/10/15 12:11:28;;;;;;;5.50;3.73;;;15.80;99.90;;;;;;5005050;28;20450;-86
2021/10/15 12:13:56;;;;;;;8.80;4.60;;;15.60;99.90;;;;;;5004595;28;20457;-86
2021/10/15 12:16:26;;;;;;;7.23;4.33;;;15.70;99.90;;;;;;5004299;28;20550;-86
2021/10/15 12:19:07;;;;;;;7.80;4.93;;;15.70;99.90;;;;;;5007804;28;20462;-86
2021/10/15 12:21:39;;;;;;;6.43;3.70;;;15.90;99.90;;;;;;5010327;28;20442;-87
2021/10/15 12:24:08;;;;;;;5.00;3.70;;;15.90;99.90;;;;;;5004154;28;20435;-86
2021/10/15 12:26:35;;;;;;;6.13;3.77;;;16.00;99.90;;;;;;5003948;28;20546;-86
2021/10/15 12:29:02;;;;;;;6.00;4.00;;;16.10;99.90;;;;;;5004605;28;20456;-87
2021/10/15 12:31:31;;;;;;;9.40;4.00;;;16.30;99.90;;;;;;5008563;28;20463;-86
2021/10/15 12:34:03;;;;;;;8.93;4.50;;;16.20;99.90;;;;;;5014178;28;20447;-86
2021/10/15 12:36:30;;;;;;;5.70;4.07;;;16.10;99.90;;;;;;5010630;28;20448;-86
2021/10/15 12:39:17;;;;;;;6.07;3.43;;;15.90;99.90;;;;;;5005457;28;20440;-87
2021/10/15 12:41:44;;;;;;;7.00;4.20;;;15.80;99.90;;;;;;5004743;28;20435;-87
2021/10/15 12:44:22;;;;;;;6.40;3.53;;;15.80;99.90;;;;;;5003558;28;20428;-86
2021/10/15 12:47:00;;;;;;;4.90;2.83;;;15.80;99.90;;;;;;5003939;28;20763;-86
2021/10/15 12:49:28;;;;;;;6.60;3.87;;;15.90;99.90;;;;;;5002718;28;20480;-86
2021/10/15 12:51:56;;;;;;;7.00;3.80;;;15.80;99.90;;;;;;5006340;28;20452;-86
2021/10/15 12:54:41;;;;;;;5.90;4.10;;;15.70;99.90;;;;;;5003507;28;20457;-86
2021/10/15 12:57:11;;;;;;;8.30;4.37;;;15.70;99.90;;;;;;5003559;28;20431;-85
2021/10/15 12:59:38;;;;;;;6.50;4.33;;;15.80;99.90;;;;;;5004644;28;20457;-86
2021/10/15 13:02:08;;;;;;;6.13;4.47;;;16.00;99.90;;;;;;5003282;28;20426;-87
2021/10/15 13:04:36;;;;;;;6.27;4.10;;;15.90;99.90;;;;;;5003465;28;20475;-85
2021/10/15 13:07:03;;;;;;;9.23;5.60;;;15.90;99.90;;;;;;5003063;28;20453;-85
2021/10/15 13:09:33;;;;;;;5.90;3.90;;;15.80;99.90;;;;;;5003144;28;20559;-87
2021/10/15 13:12:01;;;;;;;7.60;3.67;;;16.00;99.90;;;;;;5003796;28;20430;-85